Warminster, United Kingdom
Current Conditions -  °F | °C
As of 5:50 PM on Friday 28 Nov 2014 (Local Time) from EGDM Reporting Station
Haze Haze  
Wind Chill: 50°   Ceiling: Unl
Heat Index: 50°   Visibility: 5mi
Dew Point: 46°   Wind: 14mph
Humidity: 87%   Direction: 70°ENE
Pressure: 29.59"   Gusts: NA
Location:  51.2°N, 2.18°W
Report Text: EGDM 281750Z AUTO 07012KT 8000 HZ FEW230/// 10/08 Q1002
Loading
Personal Weather Stations






























Interactive Weather Map New forecast layout! Learn more

10-Day Weather Forecast

Advertisements
Track Severe Weather on mobile